<?xml version="1.0" encoding="UTF-8" standalone="no" ?>
<gpx xmlns="http://www.topografix.com/GPX/1/1" xmlns:xsi="http://www.w3.org/2001/XMLSchema-instance" xsi:schemaLocation="http://www.topografix.com/GPX/1/1 http://www.topografix.com/GPX/1/1/gpx.xsd" version="1.1" creator="VisuGPX - https://www.visugpx.com">
  <metadata>
    <name>Marche N du samedi 11/03/2017</name>
    <desc><![CDATA[Marche N du samedi 11/03/2017

Marche N du samedi 11/03/2017 Rendez-vous 9h15 salle des sports En voiture parking de la Tuilerie (St-Benoît) Circuit vallonné. Température 7* à 9h et 15* à 12h temps ensoleillé direction les vaux de Cernay départ parking : LA:48.680120 LO: 1.930170

Démarré	11/03/2017 09:31:50
Terminé	11/03/2017 11:39:52
Durée	02:08:01
Dist. Parcourue	9.25 km
Vitesse Moy	4.3 km/h
Allure Moy	13.8 min par km
Vitesse Max	14.8 km/h
Déniv. Positif	797.7 m
Déniv. Négatif	800.2 m
]]></desc>
  </metadata>
  <trk>
    <name><![CDATA[Marche N du samedi 11/03/2017]]></name>
    <desc><![CDATA[Marche N du samedi 11/03/2017
Rendez-vous 9h15 
salle des sports
En voiture parking de la Tuilerie (St-Benoît) Circuit vallonné.     Température 7* à 9h et 15* à 12h temps ensoleillé 
direction les vaux de Cernay                       départ parking :                                   LA:48.680120                                                      LO: 1.930170]]></desc>
    <trkseg>
      <trkpt lat="48.68004" lon="1.93052">
        <ele>167.30541992188</ele>
        <time>2017-03-11T08:31:50Z</time>
      </trkpt>
      <trkpt lat="48.68006" lon="1.93052">
        <ele>166.62664794922</ele>
        <time>2017-03-11T08:31:53Z</time>
      </trkpt>
      <trkpt lat="48.6801" lon="1.93073">
        <ele>167.53344726562</ele>
        <time>2017-03-11T08:32:53Z</time>
      </trkpt>
      <trkpt lat="48.68014" lon="1.93094">
        <ele>166.04193115234</ele>
        <time>2017-03-11T08:33:08Z</time>
      </trkpt>
      <trkpt lat="48.68016" lon="1.93114">
        <ele>166.08837890625</ele>
        <time>2017-03-11T08:33:15Z</time>
      </trkpt>
      <trkpt lat="48.6802" lon="1.93136">
        <ele>167.30218505859</ele>
        <time>2017-03-11T08:33:22Z</time>
      </trkpt>
      <trkpt lat="48.68022" lon="1.93158">
        <ele>167.36865234375</ele>
        <time>2017-03-11T08:33:33Z</time>
      </trkpt>
      <trkpt lat="48.68024" lon="1.9318">
        <ele>167.87683105469</ele>
        <time>2017-03-11T08:33:41Z</time>
      </trkpt>
      <trkpt lat="48.68034" lon="1.93195">
        <ele>167.41040039062</ele>
        <time>2017-03-11T08:33:50Z</time>
      </trkpt>
      <trkpt lat="48.68037" lon="1.93217">
        <ele>163.12023925781</ele>
        <time>2017-03-11T08:33:58Z</time>
      </trkpt>
      <trkpt lat="48.68041" lon="1.93237">
        <ele>163.55401611328</ele>
        <time>2017-03-11T08:34:08Z</time>
      </trkpt>
      <trkpt lat="48.68046" lon="1.93257">
        <ele>162.19604492188</ele>
        <time>2017-03-11T08:34:19Z</time>
      </trkpt>
      <trkpt lat="48.68058" lon="1.93275">
        <ele>157.86853027344</ele>
        <time>2017-03-11T08:34:26Z</time>
      </trkpt>
      <trkpt lat="48.68068" lon="1.93291">
        <ele>157.97943115234</ele>
        <time>2017-03-11T08:34:34Z</time>
      </trkpt>
      <trkpt lat="48.68079" lon="1.93304">
        <ele>156.64978027344</ele>
        <time>2017-03-11T08:34:46Z</time>
      </trkpt>
      <trkpt lat="48.6809" lon="1.93318">
        <ele>159.01818847656</ele>
        <time>2017-03-11T08:34:57Z</time>
      </trkpt>
      <trkpt lat="48.68101" lon="1.93329">
        <ele>154.83508300781</ele>
        <time>2017-03-11T08:35:04Z</time>
      </trkpt>
      <trkpt lat="48.68116" lon="1.93329">
        <ele>152.94403076172</ele>
        <time>2017-03-11T08:35:13Z</time>
      </trkpt>
      <trkpt lat="48.6813" lon="1.93335">
        <ele>149.28234863281</ele>
        <time>2017-03-11T08:35:20Z</time>
      </trkpt>
      <trkpt lat="48.68144" lon="1.93335">
        <ele>148.26782226562</ele>
        <time>2017-03-11T08:35:31Z</time>
      </trkpt>
      <trkpt lat="48.68155" lon="1.93347">
        <ele>141.47125244141</ele>
        <time>2017-03-11T08:35:42Z</time>
      </trkpt>
      <trkpt lat="48.68153" lon="1.93368">
        <ele>139.32464599609</ele>
        <time>2017-03-11T08:35:50Z</time>
      </trkpt>
      <trkpt lat="48.68167" lon="1.93373">
        <ele>136.18493652344</ele>
        <time>2017-03-11T08:36:01Z</time>
      </trkpt>
      <trkpt lat="48.68178" lon="1.93387">
        <ele>137.78997802734</ele>
        <time>2017-03-11T08:36:11Z</time>
      </trkpt>
      <trkpt lat="48.68191" lon="1.93393">
        <ele>138.85308837891</ele>
        <time>2017-03-11T08:36:22Z</time>
      </trkpt>
      <trkpt lat="48.68203" lon="1.93406">
        <ele>145.96868896484</ele>
        <time>2017-03-11T08:36:35Z</time>
      </trkpt>
      <trkpt lat="48.68215" lon="1.93416">
        <ele>146.431640625</ele>
        <time>2017-03-11T08:36:45Z</time>
      </trkpt>
      <trkpt lat="48.68231" lon="1.93423">
        <ele>147.07202148438</ele>
        <time>2017-03-11T08:36:58Z</time>
      </trkpt>
      <trkpt lat="48.68242" lon="1.93435">
        <ele>141.2001953125</ele>
        <time>2017-03-11T08:37:06Z</time>
      </trkpt>
      <trkpt lat="48.68254" lon="1.93448">
        <ele>143.12060546875</ele>
        <time>2017-03-11T08:37:15Z</time>
      </trkpt>
      <trkpt lat="48.68267" lon="1.93455">
        <ele>146.19055175781</ele>
        <time>2017-03-11T08:37:26Z</time>
      </trkpt>
      <trkpt lat="48.68279" lon="1.93465">
        <ele>141.64306640625</ele>
        <time>2017-03-11T08:37:36Z</time>
      </trkpt>
      <trkpt lat="48.68293" lon="1.93471">
        <ele>140.25256347656</ele>
        <time>2017-03-11T08:37:43Z</time>
      </trkpt>
      <trkpt lat="48.68301" lon="1.93495">
        <ele>139.40625</ele>
        <time>2017-03-11T08:37:56Z</time>
      </trkpt>
      <trkpt lat="48.68308" lon="1.93514">
        <ele>124.53961181641</ele>
        <time>2017-03-11T08:39:03Z</time>
      </trkpt>
      <trkpt lat="48.68306" lon="1.93535">
        <ele>120.74847412109</ele>
        <time>2017-03-11T08:39:14Z</time>
      </trkpt>
      <trkpt lat="48.683" lon="1.93556">
        <ele>122.70758056641</ele>
        <time>2017-03-11T08:39:20Z</time>
      </trkpt>
      <trkpt lat="48.68298" lon="1.93578">
        <ele>117.65393066406</ele>
        <time>2017-03-11T08:39:27Z</time>
      </trkpt>
      <trkpt lat="48.68295" lon="1.93599">
        <ele>120.18029785156</ele>
        <time>2017-03-11T08:39:35Z</time>
      </trkpt>
      <trkpt lat="48.68286" lon="1.93614">
        <ele>118.98645019531</ele>
        <time>2017-03-11T08:39:42Z</time>
      </trkpt>
      <trkpt lat="48.68279" lon="1.93633">
        <ele>117.43859863281</ele>
        <time>2017-03-11T08:39:53Z</time>
      </trkpt>
      <trkpt lat="48.68278" lon="1.93656">
        <ele>118.80773925781</ele>
        <time>2017-03-11T08:40:06Z</time>
      </trkpt>
      <trkpt lat="48.68273" lon="1.93677">
        <ele>116.75421142578</ele>
        <time>2017-03-11T08:40:13Z</time>
      </trkpt>
      <trkpt lat="48.68283" lon="1.93691">
        <ele>120.47802734375</ele>
        <time>2017-03-11T08:41:21Z</time>
      </trkpt>
      <trkpt lat="48.68298" lon="1.93689">
        <ele>119.61871337891</ele>
        <time>2017-03-11T08:41:27Z</time>
      </trkpt>
      <trkpt lat="48.68312" lon="1.93687">
        <ele>120.31652832031</ele>
        <time>2017-03-11T08:41:37Z</time>
      </trkpt>
      <trkpt lat="48.68322" lon="1.93701">
        <ele>125.75231933594</ele>
        <time>2017-03-11T08:41:49Z</time>
      </trkpt>
      <trkpt lat="48.68336" lon="1.93707">
        <ele>121.31256103516</ele>
        <time>2017-03-11T08:41:57Z</time>
      </trkpt>
      <trkpt lat="48.6835" lon="1.93709">
        <ele>122.1748046875</ele>
        <time>2017-03-11T08:42:06Z</time>
      </trkpt>
      <trkpt lat="48.68364" lon="1.93707">
        <ele>112.6796875</ele>
        <time>2017-03-11T08:42:16Z</time>
      </trkpt>
      <trkpt lat="48.6838" lon="1.93705">
        <ele>111.96832275391</ele>
        <time>2017-03-11T08:42:25Z</time>
      </trkpt>
      <trkpt lat="48.68394" lon="1.93707">
        <ele>113.62487792969</ele>
        <time>2017-03-11T08:42:33Z</time>
      </trkpt>
      <trkpt lat="48.68423" lon="1.93705">
        <ele>113.50054931641</ele>
        <time>2017-03-11T08:42:56Z</time>
      </trkpt>
      <trkpt lat="48.68437" lon="1.93704">
        <ele>116.44616699219</ele>
        <time>2017-03-11T08:43:02Z</time>
      </trkpt>
      <trkpt lat="48.68453" lon="1.93704">
        <ele>117.18377685547</ele>
        <time>2017-03-11T08:43:08Z</time>
      </trkpt>
      <trkpt lat="48.68465" lon="1.93691">
        <ele>107.00659179688</ele>
        <time>2017-03-11T08:43:21Z</time>
      </trkpt>
      <trkpt lat="48.68476" lon="1.93677">
        <ele>104.53955078125</ele>
        <time>2017-03-11T08:43:31Z</time>
      </trkpt>
      <trkpt lat="48.68478" lon="1.93654">
        <ele>101.90484619141</ele>
        <time>2017-03-11T08:43:39Z</time>
      </trkpt>
      <trkpt lat="48.68482" lon="1.93634">
        <ele>104.85339355469</ele>
        <time>2017-03-11T08:43:51Z</time>
      </trkpt>
      <trkpt lat="48.6849" lon="1.93616">
        <ele>100.10540771484</ele>
        <time>2017-03-11T08:44:01Z</time>
      </trkpt>
      <trkpt lat="48.68493" lon="1.93595">
        <ele>103.41198730469</ele>
        <time>2017-03-11T08:44:10Z</time>
      </trkpt>
      <trkpt lat="48.68508" lon="1.93596">
        <ele>109.99328613281</ele>
        <time>2017-03-11T08:44:25Z</time>
      </trkpt>
      <trkpt lat="48.68522" lon="1.93599">
        <ele>115.22045898438</ele>
        <time>2017-03-11T08:44:34Z</time>
      </trkpt>
      <trkpt lat="48.68533" lon="1.93585">
        <ele>117.85467529297</ele>
        <time>2017-03-11T08:44:47Z</time>
      </trkpt>
      <trkpt lat="48.68538" lon="1.93565">
        <ele>113.41760253906</ele>
        <time>2017-03-11T08:44:57Z</time>
      </trkpt>
      <trkpt lat="48.68543" lon="1.93546">
        <ele>107.57208251953</ele>
        <time>2017-03-11T08:45:08Z</time>
      </trkpt>
      <trkpt lat="48.68553" lon="1.93532">
        <ele>108.64501953125</ele>
        <time>2017-03-11T08:45:18Z</time>
      </trkpt>
      <trkpt lat="48.68563" lon="1.93515">
        <ele>104.21936035156</ele>
        <time>2017-03-11T08:45:29Z</time>
      </trkpt>
      <trkpt lat="48.68564" lon="1.93495">
        <ele>103.70874023438</ele>
        <time>2017-03-11T08:45:38Z</time>
      </trkpt>
      <trkpt lat="48.68569" lon="1.93474">
        <ele>102.86065673828</ele>
        <time>2017-03-11T08:45:46Z</time>
      </trkpt>
      <trkpt lat="48.68574" lon="1.93453">
        <ele>105.34643554688</ele>
        <time>2017-03-11T08:45:55Z</time>
      </trkpt>
      <trkpt lat="48.68579" lon="1.93434">
        <ele>108.60986328125</ele>
        <time>2017-03-11T08:46:04Z</time>
      </trkpt>
      <trkpt lat="48.68585" lon="1.93415">
        <ele>116.00561523438</ele>
        <time>2017-03-11T08:46:17Z</time>
      </trkpt>
      <trkpt lat="48.68594" lon="1.93398">
        <ele>112.6513671875</ele>
        <time>2017-03-11T08:46:26Z</time>
      </trkpt>
      <trkpt lat="48.68601" lon="1.93377">
        <ele>110.77044677734</ele>
        <time>2017-03-11T08:46:34Z</time>
      </trkpt>
      <trkpt lat="48.68608" lon="1.93357">
        <ele>108.37365722656</ele>
        <time>2017-03-11T08:46:44Z</time>
      </trkpt>
      <trkpt lat="48.68613" lon="1.93337">
        <ele>111.59259033203</ele>
        <time>2017-03-11T08:46:51Z</time>
      </trkpt>
      <trkpt lat="48.68617" lon="1.93317">
        <ele>114.31317138672</ele>
        <time>2017-03-11T08:47:01Z</time>
      </trkpt>
      <trkpt lat="48.68617" lon="1.93296">
        <ele>112.11962890625</ele>
        <time>2017-03-11T08:47:09Z</time>
      </trkpt>
      <trkpt lat="48.68615" lon="1.93276">
        <ele>108.25360107422</ele>
        <time>2017-03-11T08:47:19Z</time>
      </trkpt>
      <trkpt lat="48.68613" lon="1.93254">
        <ele>111.19836425781</ele>
        <time>2017-03-11T08:47:26Z</time>
      </trkpt>
      <trkpt lat="48.68613" lon="1.93233">
        <ele>110.89636230469</ele>
        <time>2017-03-11T08:47:35Z</time>
      </trkpt>
      <trkpt lat="48.68608" lon="1.93212">
        <ele>111.16766357422</ele>
        <time>2017-03-11T08:47:43Z</time>
      </trkpt>
      <trkpt lat="48.68604" lon="1.93191">
        <ele>112.40252685547</ele>
        <time>2017-03-11T08:47:52Z</time>
      </trkpt>
      <trkpt lat="48.68607" lon="1.93168">
        <ele>111.35913085938</ele>
        <time>2017-03-11T08:48:02Z</time>
      </trkpt>
      <trkpt lat="48.68609" lon="1.93147">
        <ele>110.17395019531</ele>
        <time>2017-03-11T08:48:09Z</time>
      </trkpt>
      <trkpt lat="48.68616" lon="1.93128">
        <ele>113.85394287109</ele>
        <time>2017-03-11T08:48:20Z</time>
      </trkpt>
      <trkpt lat="48.68618" lon="1.93106">
        <ele>114.32800292969</ele>
        <time>2017-03-11T08:48:30Z</time>
      </trkpt>
      <trkpt lat="48.68614" lon="1.93086">
        <ele>115.86834716797</ele>
        <time>2017-03-11T08:48:37Z</time>
      </trkpt>
      <trkpt lat="48.68616" lon="1.93066">
        <ele>113.19195556641</ele>
        <time>2017-03-11T08:48:45Z</time>
      </trkpt>
      <trkpt lat="48.68617" lon="1.93043">
        <ele>106.37805175781</ele>
        <time>2017-03-11T08:48:55Z</time>
      </trkpt>
      <trkpt lat="48.6862" lon="1.93022">
        <ele>107.49841308594</ele>
        <time>2017-03-11T08:49:05Z</time>
      </trkpt>
      <trkpt lat="48.68629" lon="1.93005">
        <ele>109.77014160156</ele>
        <time>2017-03-11T08:49:15Z</time>
      </trkpt>
      <trkpt lat="48.68641" lon="1.92991">
        <ele>113.26483154297</ele>
        <time>2017-03-11T08:49:25Z</time>
      </trkpt>
      <trkpt lat="48.6865" lon="1.92975">
        <ele>115.65222167969</ele>
        <time>2017-03-11T08:49:33Z</time>
      </trkpt>
      <trkpt lat="48.68655" lon="1.92954">
        <ele>111.33410644531</ele>
        <time>2017-03-11T08:49:41Z</time>
      </trkpt>
      <trkpt lat="48.68663" lon="1.92937">
        <ele>115.36791992188</ele>
        <time>2017-03-11T08:49:51Z</time>
      </trkpt>
      <trkpt lat="48.68672" lon="1.92922">
        <ele>117.47863769531</ele>
        <time>2017-03-11T08:49:59Z</time>
      </trkpt>
      <trkpt lat="48.68682" lon="1.92904">
        <ele>114.08087158203</ele>
        <time>2017-03-11T08:50:08Z</time>
      </trkpt>
      <trkpt lat="48.68692" lon="1.9289">
        <ele>113.25762939453</ele>
        <time>2017-03-11T08:50:16Z</time>
      </trkpt>
      <trkpt lat="48.68701" lon="1.92873">
        <ele>107.05383300781</ele>
        <time>2017-03-11T08:50:24Z</time>
      </trkpt>
      <trkpt lat="48.68708" lon="1.92856">
        <ele>105.7119140625</ele>
        <time>2017-03-11T08:50:33Z</time>
      </trkpt>
      <trkpt lat="48.68723" lon="1.92853">
        <ele>114.01800537109</ele>
        <time>2017-03-11T08:50:55Z</time>
      </trkpt>
      <trkpt lat="48.68719" lon="1.92873">
        <ele>121.32604980469</ele>
        <time>2017-03-11T08:51:09Z</time>
      </trkpt>
      <trkpt lat="48.68712" lon="1.92894">
        <ele>124.00012207031</ele>
        <time>2017-03-11T08:51:21Z</time>
      </trkpt>
      <trkpt lat="48.68703" lon="1.92912">
        <ele>125.67041015625</ele>
        <time>2017-03-11T08:51:28Z</time>
      </trkpt>
      <trkpt lat="48.68696" lon="1.92931">
        <ele>124.67346191406</ele>
        <time>2017-03-11T08:51:39Z</time>
      </trkpt>
      <trkpt lat="48.68693" lon="1.92951">
        <ele>129.76599121094</ele>
        <time>2017-03-11T08:51:50Z</time>
      </trkpt>
      <trkpt lat="48.68682" lon="1.92969">
        <ele>125.27825927734</ele>
        <time>2017-03-11T08:51:57Z</time>
      </trkpt>
      <trkpt lat="48.68679" lon="1.92989">
        <ele>130.45098876953</ele>
        <time>2017-03-11T08:52:07Z</time>
      </trkpt>
      <trkpt lat="48.68675" lon="1.93012">
        <ele>128.51611328125</ele>
        <time>2017-03-11T08:52:18Z</time>
      </trkpt>
      <trkpt lat="48.6867" lon="1.93032">
        <ele>133.87280273438</ele>
        <time>2017-03-11T08:52:29Z</time>
      </trkpt>
      <trkpt lat="48.68684" lon="1.93038">
        <ele>137.69879150391</ele>
        <time>2017-03-11T08:52:47Z</time>
      </trkpt>
      <trkpt lat="48.68699" lon="1.93038">
        <ele>141.84899902344</ele>
        <time>2017-03-11T08:53:06Z</time>
      </trkpt>
      <trkpt lat="48.68713" lon="1.93032">
        <ele>140.56384277344</ele>
        <time>2017-03-11T08:53:17Z</time>
      </trkpt>
      <trkpt lat="48.68725" lon="1.9304">
        <ele>145.50402832031</ele>
        <time>2017-03-11T08:53:28Z</time>
      </trkpt>
      <trkpt lat="48.68739" lon="1.93034">
        <ele>148.38537597656</ele>
        <time>2017-03-11T08:53:40Z</time>
      </trkpt>
      <trkpt lat="48.68752" lon="1.93031">
        <ele>153.93896484375</ele>
        <time>2017-03-11T08:53:52Z</time>
      </trkpt>
      <trkpt lat="48.68766" lon="1.93039">
        <ele>157.34265136719</ele>
        <time>2017-03-11T08:54:06Z</time>
      </trkpt>
      <trkpt lat="48.68776" lon="1.93054">
        <ele>153.70104980469</ele>
        <time>2017-03-11T08:54:16Z</time>
      </trkpt>
      <trkpt lat="48.68786" lon="1.93067">
        <ele>161.25830078125</ele>
        <time>2017-03-11T08:54:29Z</time>
      </trkpt>
      <trkpt lat="48.68791" lon="1.93088">
        <ele>162.24658203125</ele>
        <time>2017-03-11T08:54:49Z</time>
      </trkpt>
      <trkpt lat="48.68791" lon="1.9311">
        <ele>162.0166015625</ele>
        <time>2017-03-11T08:55:02Z</time>
      </trkpt>
      <trkpt lat="48.68802" lon="1.93125">
        <ele>172.30517578125</ele>
        <time>2017-03-11T08:55:17Z</time>
      </trkpt>
      <trkpt lat="48.68811" lon="1.93144">
        <ele>171.68774414062</ele>
        <time>2017-03-11T08:57:30Z</time>
      </trkpt>
      <trkpt lat="48.68806" lon="1.93167">
        <ele>169.11950683594</ele>
        <time>2017-03-11T08:57:35Z</time>
      </trkpt>
      <trkpt lat="48.68803" lon="1.93187">
        <ele>170.6806640625</ele>
        <time>2017-03-11T08:57:43Z</time>
      </trkpt>
      <trkpt lat="48.68804" lon="1.93209">
        <ele>171.44140625</ele>
        <time>2017-03-11T08:57:51Z</time>
      </trkpt>
      <trkpt lat="48.6881" lon="1.93227">
        <ele>172.02667236328</ele>
        <time>2017-03-11T08:58:01Z</time>
      </trkpt>
      <trkpt lat="48.68809" lon="1.93247">
        <ele>175.15576171875</ele>
        <time>2017-03-11T08:58:10Z</time>
      </trkpt>
      <trkpt lat="48.68802" lon="1.93266">
        <ele>169.04943847656</ele>
        <time>2017-03-11T08:58:17Z</time>
      </trkpt>
      <trkpt lat="48.68802" lon="1.93288">
        <ele>167.64770507812</ele>
        <time>2017-03-11T08:58:30Z</time>
      </trkpt>
      <trkpt lat="48.68799" lon="1.93309">
        <ele>165.55474853516</ele>
        <time>2017-03-11T08:58:39Z</time>
      </trkpt>
      <trkpt lat="48.68805" lon="1.93327">
        <ele>162.54162597656</ele>
        <time>2017-03-11T08:58:48Z</time>
      </trkpt>
      <trkpt lat="48.68802" lon="1.93348">
        <ele>158.43463134766</ele>
        <time>2017-03-11T08:58:59Z</time>
      </trkpt>
      <trkpt lat="48.68792" lon="1.93363">
        <ele>159.91833496094</ele>
        <time>2017-03-11T08:59:12Z</time>
      </trkpt>
      <trkpt lat="48.6878" lon="1.93377">
        <ele>161.39709472656</ele>
        <time>2017-03-11T08:59:19Z</time>
      </trkpt>
      <trkpt lat="48.68769" lon="1.93393">
        <ele>168.91656494141</ele>
        <time>2017-03-11T08:59:28Z</time>
      </trkpt>
      <trkpt lat="48.68759" lon="1.93408">
        <ele>167.12567138672</ele>
        <time>2017-03-11T08:59:37Z</time>
      </trkpt>
      <trkpt lat="48.68753" lon="1.93426">
        <ele>167.10845947266</ele>
        <time>2017-03-11T08:59:52Z</time>
      </trkpt>
      <trkpt lat="48.6875" lon="1.93447">
        <ele>163.70068359375</ele>
        <time>2017-03-11T09:00:02Z</time>
      </trkpt>
      <trkpt lat="48.68737" lon="1.93451">
        <ele>159.44458007812</ele>
        <time>2017-03-11T09:00:50Z</time>
      </trkpt>
      <trkpt lat="48.68723" lon="1.93459">
        <ele>158.96923828125</ele>
        <time>2017-03-11T09:00:57Z</time>
      </trkpt>
      <trkpt lat="48.68709" lon="1.93459">
        <ele>159.56115722656</ele>
        <time>2017-03-11T09:01:07Z</time>
      </trkpt>
      <trkpt lat="48.68697" lon="1.93449">
        <ele>159.89111328125</ele>
        <time>2017-03-11T09:01:19Z</time>
      </trkpt>
      <trkpt lat="48.68683" lon="1.93444">
        <ele>156.31689453125</ele>
        <time>2017-03-11T09:01:28Z</time>
      </trkpt>
      <trkpt lat="48.6867" lon="1.9344">
        <ele>150.05358886719</ele>
        <time>2017-03-11T09:01:40Z</time>
      </trkpt>
      <trkpt lat="48.68657" lon="1.93447">
        <ele>147.98327636719</ele>
        <time>2017-03-11T09:01:51Z</time>
      </trkpt>
      <trkpt lat="48.68648" lon="1.93464">
        <ele>139.47796630859</ele>
        <time>2017-03-11T09:02:09Z</time>
      </trkpt>
      <trkpt lat="48.68644" lon="1.93485">
        <ele>140.82525634766</ele>
        <time>2017-03-11T09:02:19Z</time>
      </trkpt>
      <trkpt lat="48.68635" lon="1.93501">
        <ele>140.87023925781</ele>
        <time>2017-03-11T09:02:27Z</time>
      </trkpt>
      <trkpt lat="48.68631" lon="1.93521">
        <ele>141.62866210938</ele>
        <time>2017-03-11T09:02:37Z</time>
      </trkpt>
      <trkpt lat="48.68638" lon="1.9354">
        <ele>139.02044677734</ele>
        <time>2017-03-11T09:04:15Z</time>
      </trkpt>
      <trkpt lat="48.6865" lon="1.93552">
        <ele>140.05847167969</ele>
        <time>2017-03-11T09:04:22Z</time>
      </trkpt>
      <trkpt lat="48.68656" lon="1.93571">
        <ele>143.912109375</ele>
        <time>2017-03-11T09:04:26Z</time>
      </trkpt>
      <trkpt lat="48.68658" lon="1.93594">
        <ele>143.10687255859</ele>
        <time>2017-03-11T09:04:33Z</time>
      </trkpt>
      <trkpt lat="48.68665" lon="1.93613">
        <ele>143.708984375</ele>
        <time>2017-03-11T09:04:40Z</time>
      </trkpt>
      <trkpt lat="48.68678" lon="1.93619">
        <ele>139.81951904297</ele>
        <time>2017-03-11T09:04:49Z</time>
      </trkpt>
      <trkpt lat="48.68685" lon="1.93637">
        <ele>145.24896240234</ele>
        <time>2017-03-11T09:04:59Z</time>
      </trkpt>
      <trkpt lat="48.68699" lon="1.93644">
        <ele>145.38629150391</ele>
        <time>2017-03-11T09:05:10Z</time>
      </trkpt>
      <trkpt lat="48.68706" lon="1.93663">
        <ele>148.96026611328</ele>
        <time>2017-03-11T09:05:22Z</time>
      </trkpt>
      <trkpt lat="48.68716" lon="1.93678">
        <ele>146.50634765625</ele>
        <time>2017-03-11T09:05:31Z</time>
      </trkpt>
      <trkpt lat="48.68706" lon="1.93691">
        <ele>153.39953613281</ele>
        <time>2017-03-11T09:05:50Z</time>
      </trkpt>
      <trkpt lat="48.687" lon="1.93711">
        <ele>157.55444335938</ele>
        <time>2017-03-11T09:06:04Z</time>
      </trkpt>
      <trkpt lat="48.68694" lon="1.93731">
        <ele>159.92431640625</ele>
        <time>2017-03-11T09:06:15Z</time>
      </trkpt>
      <trkpt lat="48.68687" lon="1.93749">
        <ele>161.55285644531</ele>
        <time>2017-03-11T09:06:25Z</time>
      </trkpt>
      <trkpt lat="48.68684" lon="1.93771">
        <ele>163.11730957031</ele>
        <time>2017-03-11T09:06:36Z</time>
      </trkpt>
      <trkpt lat="48.6869" lon="1.9379">
        <ele>166.71429443359</ele>
        <time>2017-03-11T09:06:49Z</time>
      </trkpt>
      <trkpt lat="48.6868" lon="1.93808">
        <ele>159.99133300781</ele>
        <time>2017-03-11T09:10:44Z</time>
      </trkpt>
      <trkpt lat="48.6867" lon="1.93822">
        <ele>161.19567871094</ele>
        <time>2017-03-11T09:11:05Z</time>
      </trkpt>
      <trkpt lat="48.68656" lon="1.93823">
        <ele>156.90515136719</ele>
        <time>2017-03-11T09:11:19Z</time>
      </trkpt>
      <trkpt lat="48.68642" lon="1.93819">
        <ele>158.11370849609</ele>
        <time>2017-03-11T09:11:25Z</time>
      </trkpt>
      <trkpt lat="48.68632" lon="1.93835">
        <ele>156.17828369141</ele>
        <time>2017-03-11T09:11:32Z</time>
      </trkpt>
      <trkpt lat="48.68623" lon="1.93818">
        <ele>143.84222412109</ele>
        <time>2017-03-11T09:12:01Z</time>
      </trkpt>
      <trkpt lat="48.68614" lon="1.93802">
        <ele>141.94372558594</ele>
        <time>2017-03-11T09:12:14Z</time>
      </trkpt>
      <trkpt lat="48.68604" lon="1.93787">
        <ele>141.06909179688</ele>
        <time>2017-03-11T09:12:27Z</time>
      </trkpt>
      <trkpt lat="48.68589" lon="1.93786">
        <ele>143.95806884766</ele>
        <time>2017-03-11T09:12:40Z</time>
      </trkpt>
      <trkpt lat="48.68575" lon="1.93788">
        <ele>146.84429931641</ele>
        <time>2017-03-11T09:12:48Z</time>
      </trkpt>
      <trkpt lat="48.68565" lon="1.93801">
        <ele>154.3369140625</ele>
        <time>2017-03-11T09:13:01Z</time>
      </trkpt>
      <trkpt lat="48.68553" lon="1.93811">
        <ele>164.31005859375</ele>
        <time>2017-03-11T09:13:12Z</time>
      </trkpt>
      <trkpt lat="48.68544" lon="1.9383">
        <ele>153.21740722656</ele>
        <time>2017-03-11T09:13:38Z</time>
      </trkpt>
      <trkpt lat="48.68539" lon="1.9385">
        <ele>152.21746826172</ele>
        <time>2017-03-11T09:13:46Z</time>
      </trkpt>
      <trkpt lat="48.68526" lon="1.93867">
        <ele>145.91418457031</ele>
        <time>2017-03-11T09:13:53Z</time>
      </trkpt>
      <trkpt lat="48.68517" lon="1.93884">
        <ele>141.27770996094</ele>
        <time>2017-03-11T09:14:08Z</time>
      </trkpt>
      <trkpt lat="48.68504" lon="1.9389">
        <ele>140.12487792969</ele>
        <time>2017-03-11T09:14:20Z</time>
      </trkpt>
      <trkpt lat="48.6849" lon="1.93893">
        <ele>139.37243652344</ele>
        <time>2017-03-11T09:14:30Z</time>
      </trkpt>
      <trkpt lat="48.6848" lon="1.93907">
        <ele>142.25201416016</ele>
        <time>2017-03-11T09:14:46Z</time>
      </trkpt>
      <trkpt lat="48.68473" lon="1.93925">
        <ele>146.046875</ele>
        <time>2017-03-11T09:14:57Z</time>
      </trkpt>
      <trkpt lat="48.68462" lon="1.93937">
        <ele>148.86096191406</ele>
        <time>2017-03-11T09:15:06Z</time>
      </trkpt>
      <trkpt lat="48.68453" lon="1.93953">
        <ele>138.06866455078</ele>
        <time>2017-03-11T09:15:19Z</time>
      </trkpt>
      <trkpt lat="48.68457" lon="1.93974">
        <ele>132.77899169922</ele>
        <time>2017-03-11T09:15:36Z</time>
      </trkpt>
      <trkpt lat="48.68453" lon="1.93994">
        <ele>133.95526123047</ele>
        <time>2017-03-11T09:15:54Z</time>
      </trkpt>
      <trkpt lat="48.68455" lon="1.94014">
        <ele>142.25030517578</ele>
        <time>2017-03-11T09:16:11Z</time>
      </trkpt>
      <trkpt lat="48.68461" lon="1.94033">
        <ele>148.51025390625</ele>
        <time>2017-03-11T09:16:25Z</time>
      </trkpt>
      <trkpt lat="48.68474" lon="1.94039">
        <ele>152.79467773438</ele>
        <time>2017-03-11T09:16:39Z</time>
      </trkpt>
      <trkpt lat="48.68475" lon="1.9406">
        <ele>160.98779296875</ele>
        <time>2017-03-11T09:17:25Z</time>
      </trkpt>
      <trkpt lat="48.68468" lon="1.94078">
        <ele>160.77587890625</ele>
        <time>2017-03-11T09:18:46Z</time>
      </trkpt>
      <trkpt lat="48.68463" lon="1.94098">
        <ele>160.99548339844</ele>
        <time>2017-03-11T09:18:58Z</time>
      </trkpt>
      <trkpt lat="48.68461" lon="1.94119">
        <ele>159.85382080078</ele>
        <time>2017-03-11T09:19:11Z</time>
      </trkpt>
      <trkpt lat="48.68449" lon="1.94129">
        <ele>152.0625</ele>
        <time>2017-03-11T09:19:20Z</time>
      </trkpt>
      <trkpt lat="48.68435" lon="1.94133">
        <ele>149.05645751953</ele>
        <time>2017-03-11T09:19:29Z</time>
      </trkpt>
      <trkpt lat="48.68423" lon="1.94142">
        <ele>150.77032470703</ele>
        <time>2017-03-11T09:19:37Z</time>
      </trkpt>
      <trkpt lat="48.6841" lon="1.94144">
        <ele>150.15380859375</ele>
        <time>2017-03-11T09:19:45Z</time>
      </trkpt>
      <trkpt lat="48.68396" lon="1.94146">
        <ele>147.86535644531</ele>
        <time>2017-03-11T09:19:50Z</time>
      </trkpt>
      <trkpt lat="48.68392" lon="1.94166">
        <ele>141.63549804688</ele>
        <time>2017-03-11T09:20:00Z</time>
      </trkpt>
      <trkpt lat="48.68378" lon="1.94164">
        <ele>139.50665283203</ele>
        <time>2017-03-11T09:20:08Z</time>
      </trkpt>
      <trkpt lat="48.68364" lon="1.94161">
        <ele>134.56854248047</ele>
        <time>2017-03-11T09:20:21Z</time>
      </trkpt>
      <trkpt lat="48.6835" lon="1.94164">
        <ele>132.81408691406</ele>
        <time>2017-03-11T09:20:30Z</time>
      </trkpt>
      <trkpt lat="48.68335" lon="1.94172">
        <ele>134.75524902344</ele>
        <time>2017-03-11T09:20:35Z</time>
      </trkpt>
      <trkpt lat="48.68335" lon="1.94193">
        <ele>132.46478271484</ele>
        <time>2017-03-11T09:20:41Z</time>
      </trkpt>
      <trkpt lat="48.68346" lon="1.94208">
        <ele>133.43572998047</ele>
        <time>2017-03-11T09:20:50Z</time>
      </trkpt>
      <trkpt lat="48.68359" lon="1.94218">
        <ele>136.8779296875</ele>
        <time>2017-03-11T09:21:00Z</time>
      </trkpt>
      <trkpt lat="48.68372" lon="1.94229">
        <ele>142.08544921875</ele>
        <time>2017-03-11T09:21:09Z</time>
      </trkpt>
      <trkpt lat="48.68383" lon="1.94245">
        <ele>144.40533447266</ele>
        <time>2017-03-11T09:21:17Z</time>
      </trkpt>
      <trkpt lat="48.68383" lon="1.94268">
        <ele>143.90771484375</ele>
        <time>2017-03-11T09:21:25Z</time>
      </trkpt>
      <trkpt lat="48.68379" lon="1.94287">
        <ele>144.15032958984</ele>
        <time>2017-03-11T09:21:34Z</time>
      </trkpt>
      <trkpt lat="48.68384" lon="1.94307">
        <ele>138.23651123047</ele>
        <time>2017-03-11T09:21:44Z</time>
      </trkpt>
      <trkpt lat="48.68385" lon="1.94329">
        <ele>133.55187988281</ele>
        <time>2017-03-11T09:21:53Z</time>
      </trkpt>
      <trkpt lat="48.68386" lon="1.9435">
        <ele>134.00030517578</ele>
        <time>2017-03-11T09:22:02Z</time>
      </trkpt>
      <trkpt lat="48.68388" lon="1.94371">
        <ele>134.17413330078</ele>
        <time>2017-03-11T09:22:14Z</time>
      </trkpt>
      <trkpt lat="48.68385" lon="1.94392">
        <ele>146.93035888672</ele>
        <time>2017-03-11T09:22:37Z</time>
      </trkpt>
      <trkpt lat="48.68379" lon="1.9441">
        <ele>143.35559082031</ele>
        <time>2017-03-11T09:22:43Z</time>
      </trkpt>
      <trkpt lat="48.68367" lon="1.94422">
        <ele>141.14916992188</ele>
        <time>2017-03-11T09:22:54Z</time>
      </trkpt>
      <trkpt lat="48.68358" lon="1.94439">
        <ele>144.37219238281</ele>
        <time>2017-03-11T09:23:01Z</time>
      </trkpt>
      <trkpt lat="48.68354" lon="1.94461">
        <ele>145.07373046875</ele>
        <time>2017-03-11T09:23:18Z</time>
      </trkpt>
      <trkpt lat="48.68344" lon="1.94476">
        <ele>149.28527832031</ele>
        <time>2017-03-11T09:25:27Z</time>
      </trkpt>
      <trkpt lat="48.68331" lon="1.94487">
        <ele>151.326171875</ele>
        <time>2017-03-11T09:25:35Z</time>
      </trkpt>
      <trkpt lat="48.68318" lon="1.94496">
        <ele>155.412109375</ele>
        <time>2017-03-11T09:25:44Z</time>
      </trkpt>
      <trkpt lat="48.68312" lon="1.94514">
        <ele>157.00366210938</ele>
        <time>2017-03-11T09:34:14Z</time>
      </trkpt>
      <trkpt lat="48.68305" lon="1.94538">
        <ele>158.76477050781</ele>
        <time>2017-03-11T09:34:19Z</time>
      </trkpt>
      <trkpt lat="48.68296" lon="1.94561">
        <ele>157.39367675781</ele>
        <time>2017-03-11T09:34:24Z</time>
      </trkpt>
      <trkpt lat="48.68282" lon="1.94563">
        <ele>157.76770019531</ele>
        <time>2017-03-11T09:34:30Z</time>
      </trkpt>
      <trkpt lat="48.68276" lon="1.94585">
        <ele>156.87145996094</ele>
        <time>2017-03-11T09:34:45Z</time>
      </trkpt>
      <trkpt lat="48.68264" lon="1.946">
        <ele>160.71240234375</ele>
        <time>2017-03-11T09:34:51Z</time>
      </trkpt>
      <trkpt lat="48.68257" lon="1.94619">
        <ele>164.80163574219</ele>
        <time>2017-03-11T09:35:05Z</time>
      </trkpt>
      <trkpt lat="48.68251" lon="1.94638">
        <ele>161.90667724609</ele>
        <time>2017-03-11T09:35:15Z</time>
      </trkpt>
      <trkpt lat="48.68239" lon="1.9465">
        <ele>160.4365234375</ele>
        <time>2017-03-11T09:35:25Z</time>
      </trkpt>
      <trkpt lat="48.68231" lon="1.94666">
        <ele>155.11486816406</ele>
        <time>2017-03-11T09:35:41Z</time>
      </trkpt>
      <trkpt lat="48.68237" lon="1.94686">
        <ele>154.23889160156</ele>
        <time>2017-03-11T09:35:52Z</time>
      </trkpt>
      <trkpt lat="48.68233" lon="1.94705">
        <ele>159.41320800781</ele>
        <time>2017-03-11T09:36:06Z</time>
      </trkpt>
      <trkpt lat="48.68234" lon="1.94727">
        <ele>156.14080810547</ele>
        <time>2017-03-11T09:36:20Z</time>
      </trkpt>
      <trkpt lat="48.68233" lon="1.94747">
        <ele>157.51043701172</ele>
        <time>2017-03-11T09:36:30Z</time>
      </trkpt>
      <trkpt lat="48.68228" lon="1.94766">
        <ele>155.05834960938</ele>
        <time>2017-03-11T09:36:43Z</time>
      </trkpt>
      <trkpt lat="48.68237" lon="1.94783">
        <ele>157.60662841797</ele>
        <time>2017-03-11T09:36:55Z</time>
      </trkpt>
      <trkpt lat="48.68253" lon="1.94808">
        <ele>165.140625</ele>
        <time>2017-03-11T09:37:30Z</time>
      </trkpt>
      <trkpt lat="48.68267" lon="1.94821">
        <ele>166.30029296875</ele>
        <time>2017-03-11T09:37:36Z</time>
      </trkpt>
      <trkpt lat="48.68278" lon="1.94837">
        <ele>169.736328125</ele>
        <time>2017-03-11T09:37:42Z</time>
      </trkpt>
      <trkpt lat="48.68286" lon="1.94853">
        <ele>175.689453125</ele>
        <time>2017-03-11T09:37:48Z</time>
      </trkpt>
      <trkpt lat="48.68295" lon="1.9487">
        <ele>178.36590576172</ele>
        <time>2017-03-11T09:37:57Z</time>
      </trkpt>
      <trkpt lat="48.68299" lon="1.94891">
        <ele>178.89587402344</ele>
        <time>2017-03-11T09:38:05Z</time>
      </trkpt>
      <trkpt lat="48.68284" lon="1.94897">
        <ele>178.22399902344</ele>
        <time>2017-03-11T09:38:11Z</time>
      </trkpt>
      <trkpt lat="48.68272" lon="1.94909">
        <ele>174.75244140625</ele>
        <time>2017-03-11T09:38:19Z</time>
      </trkpt>
      <trkpt lat="48.68259" lon="1.94914">
        <ele>170.47601318359</ele>
        <time>2017-03-11T09:38:28Z</time>
      </trkpt>
      <trkpt lat="48.68246" lon="1.94926">
        <ele>164.3134765625</ele>
        <time>2017-03-11T09:38:34Z</time>
      </trkpt>
      <trkpt lat="48.68232" lon="1.94934">
        <ele>164.0166015625</ele>
        <time>2017-03-11T09:38:48Z</time>
      </trkpt>
      <trkpt lat="48.68221" lon="1.94947">
        <ele>163.44140625</ele>
        <time>2017-03-11T09:38:57Z</time>
      </trkpt>
      <trkpt lat="48.682" lon="1.94959">
        <ele>167.12347412109</ele>
        <time>2017-03-11T09:39:06Z</time>
      </trkpt>
      <trkpt lat="48.68183" lon="1.94972">
        <ele>167.22430419922</ele>
        <time>2017-03-11T09:39:11Z</time>
      </trkpt>
      <trkpt lat="48.68172" lon="1.94984">
        <ele>167.88757324219</ele>
        <time>2017-03-11T09:39:18Z</time>
      </trkpt>
      <trkpt lat="48.68165" lon="1.95013">
        <ele>166.70648193359</ele>
        <time>2017-03-11T09:39:30Z</time>
      </trkpt>
      <trkpt lat="48.68154" lon="1.95034">
        <ele>166.48608398438</ele>
        <time>2017-03-11T09:39:44Z</time>
      </trkpt>
      <trkpt lat="48.68146" lon="1.95052">
        <ele>165.06225585938</ele>
        <time>2017-03-11T09:39:55Z</time>
      </trkpt>
      <trkpt lat="48.68138" lon="1.95071">
        <ele>166.17077636719</ele>
        <time>2017-03-11T09:40:01Z</time>
      </trkpt>
      <trkpt lat="48.68131" lon="1.95092">
        <ele>168.86993408203</ele>
        <time>2017-03-11T09:40:08Z</time>
      </trkpt>
      <trkpt lat="48.68122" lon="1.95111">
        <ele>167.41461181641</ele>
        <time>2017-03-11T09:40:12Z</time>
      </trkpt>
      <trkpt lat="48.68128" lon="1.95129">
        <ele>166.03936767578</ele>
        <time>2017-03-11T09:40:20Z</time>
      </trkpt>
      <trkpt lat="48.68133" lon="1.95149">
        <ele>164.45782470703</ele>
        <time>2017-03-11T09:40:29Z</time>
      </trkpt>
      <trkpt lat="48.68136" lon="1.95171">
        <ele>162.56018066406</ele>
        <time>2017-03-11T09:40:40Z</time>
      </trkpt>
      <trkpt lat="48.68128" lon="1.9519">
        <ele>164.35778808594</ele>
        <time>2017-03-11T09:40:46Z</time>
      </trkpt>
      <trkpt lat="48.68128" lon="1.95212">
        <ele>164.07434082031</ele>
        <time>2017-03-11T09:40:54Z</time>
      </trkpt>
      <trkpt lat="48.68118" lon="1.95235">
        <ele>162.64050292969</ele>
        <time>2017-03-11T09:40:59Z</time>
      </trkpt>
      <trkpt lat="48.68106" lon="1.95244">
        <ele>161.76312255859</ele>
        <time>2017-03-11T09:41:06Z</time>
      </trkpt>
      <trkpt lat="48.68097" lon="1.9526">
        <ele>160.69818115234</ele>
        <time>2017-03-11T09:41:16Z</time>
      </trkpt>
      <trkpt lat="48.68098" lon="1.95281">
        <ele>154.56030273438</ele>
        <time>2017-03-11T09:41:26Z</time>
      </trkpt>
      <trkpt lat="48.68089" lon="1.95296">
        <ele>158.88983154297</ele>
        <time>2017-03-11T09:41:36Z</time>
      </trkpt>
      <trkpt lat="48.68082" lon="1.95314">
        <ele>156.72998046875</ele>
        <time>2017-03-11T09:41:41Z</time>
      </trkpt>
      <trkpt lat="48.68076" lon="1.95335">
        <ele>156.65783691406</ele>
        <time>2017-03-11T09:41:50Z</time>
      </trkpt>
      <trkpt lat="48.68065" lon="1.95348">
        <ele>159.72021484375</ele>
        <time>2017-03-11T09:41:57Z</time>
      </trkpt>
      <trkpt lat="48.68056" lon="1.95366">
        <ele>155.28149414062</ele>
        <time>2017-03-11T09:43:07Z</time>
      </trkpt>
      <trkpt lat="48.68055" lon="1.95387">
        <ele>156.83044433594</ele>
        <time>2017-03-11T09:43:11Z</time>
      </trkpt>
      <trkpt lat="48.68049" lon="1.95413">
        <ele>157.61883544922</ele>
        <time>2017-03-11T09:43:16Z</time>
      </trkpt>
      <trkpt lat="48.68044" lon="1.95433">
        <ele>161.07763671875</ele>
        <time>2017-03-11T09:43:21Z</time>
      </trkpt>
      <trkpt lat="48.68039" lon="1.95453">
        <ele>165.28491210938</ele>
        <time>2017-03-11T09:43:30Z</time>
      </trkpt>
      <trkpt lat="48.68036" lon="1.95473">
        <ele>165.24255371094</ele>
        <time>2017-03-11T09:43:36Z</time>
      </trkpt>
      <trkpt lat="48.68029" lon="1.95492">
        <ele>168.19543457031</ele>
        <time>2017-03-11T09:43:46Z</time>
      </trkpt>
      <trkpt lat="48.68022" lon="1.95512">
        <ele>170.10870361328</ele>
        <time>2017-03-11T09:43:53Z</time>
      </trkpt>
      <trkpt lat="48.68017" lon="1.95532">
        <ele>169.07330322266</ele>
        <time>2017-03-11T09:44:02Z</time>
      </trkpt>
      <trkpt lat="48.68011" lon="1.95553">
        <ele>170.72802734375</ele>
        <time>2017-03-11T09:44:12Z</time>
      </trkpt>
      <trkpt lat="48.68006" lon="1.95571">
        <ele>166.88922119141</ele>
        <time>2017-03-11T09:44:19Z</time>
      </trkpt>
      <trkpt lat="48.67997" lon="1.95589">
        <ele>168.68377685547</ele>
        <time>2017-03-11T09:44:26Z</time>
      </trkpt>
      <trkpt lat="48.67989" lon="1.95608">
        <ele>171.93450927734</ele>
        <time>2017-03-11T09:44:35Z</time>
      </trkpt>
      <trkpt lat="48.67983" lon="1.95628">
        <ele>172.86859130859</ele>
        <time>2017-03-11T09:44:48Z</time>
      </trkpt>
      <trkpt lat="48.67976" lon="1.95646">
        <ele>169.80505371094</ele>
        <time>2017-03-11T09:44:54Z</time>
      </trkpt>
      <trkpt lat="48.67954" lon="1.95687">
        <ele>168.83605957031</ele>
        <time>2017-03-11T09:45:31Z</time>
      </trkpt>
      <trkpt lat="48.67948" lon="1.95713">
        <ele>170.931640625</ele>
        <time>2017-03-11T09:45:37Z</time>
      </trkpt>
      <trkpt lat="48.6794" lon="1.95745">
        <ele>165.34716796875</ele>
        <time>2017-03-11T09:45:54Z</time>
      </trkpt>
      <trkpt lat="48.67933" lon="1.95766">
        <ele>165.17803955078</ele>
        <time>2017-03-11T09:46:02Z</time>
      </trkpt>
      <trkpt lat="48.67928" lon="1.95786">
        <ele>169.18823242188</ele>
        <time>2017-03-11T09:46:07Z</time>
      </trkpt>
      <trkpt lat="48.6792" lon="1.95805">
        <ele>172.69653320312</ele>
        <time>2017-03-11T09:46:15Z</time>
      </trkpt>
      <trkpt lat="48.67909" lon="1.95818">
        <ele>174.37768554688</ele>
        <time>2017-03-11T09:46:23Z</time>
      </trkpt>
      <trkpt lat="48.67915" lon="1.95838">
        <ele>179.45416259766</ele>
        <time>2017-03-11T09:46:31Z</time>
      </trkpt>
      <trkpt lat="48.67909" lon="1.95859">
        <ele>174.10028076172</ele>
        <time>2017-03-11T09:46:42Z</time>
      </trkpt>
      <trkpt lat="48.67903" lon="1.95878">
        <ele>173.41644287109</ele>
        <time>2017-03-11T09:46:50Z</time>
      </trkpt>
      <trkpt lat="48.67896" lon="1.95899">
        <ele>171.80932617188</ele>
        <time>2017-03-11T09:47:00Z</time>
      </trkpt>
      <trkpt lat="48.67889" lon="1.95919">
        <ele>172.27178955078</ele>
        <time>2017-03-11T09:47:08Z</time>
      </trkpt>
      <trkpt lat="48.67877" lon="1.95933">
        <ele>169.83813476562</ele>
        <time>2017-03-11T09:47:14Z</time>
      </trkpt>
      <trkpt lat="48.67867" lon="1.95951">
        <ele>170.41668701172</ele>
        <time>2017-03-11T09:47:19Z</time>
      </trkpt>
      <trkpt lat="48.67856" lon="1.95965">
        <ele>166.58569335938</ele>
        <time>2017-03-11T09:47:34Z</time>
      </trkpt>
      <trkpt lat="48.67844" lon="1.95979">
        <ele>165.25152587891</ele>
        <time>2017-03-11T09:47:46Z</time>
      </trkpt>
      <trkpt lat="48.67835" lon="1.96">
        <ele>164.6904296875</ele>
        <time>2017-03-11T09:47:52Z</time>
      </trkpt>
      <trkpt lat="48.67829" lon="1.96028">
        <ele>168.09912109375</ele>
        <time>2017-03-11T09:47:58Z</time>
      </trkpt>
      <trkpt lat="48.67815" lon="1.96036">
        <ele>165.04779052734</ele>
        <time>2017-03-11T09:48:09Z</time>
      </trkpt>
      <trkpt lat="48.67805" lon="1.9605">
        <ele>162.91546630859</ele>
        <time>2017-03-11T09:48:20Z</time>
      </trkpt>
      <trkpt lat="48.67807" lon="1.96072">
        <ele>156.20709228516</ele>
        <time>2017-03-11T09:48:42Z</time>
      </trkpt>
      <trkpt lat="48.67799" lon="1.96093">
        <ele>160.35137939453</ele>
        <time>2017-03-11T09:48:49Z</time>
      </trkpt>
      <trkpt lat="48.67788" lon="1.96107">
        <ele>165.2880859375</ele>
        <time>2017-03-11T09:49:00Z</time>
      </trkpt>
      <trkpt lat="48.67783" lon="1.96126">
        <ele>164.03576660156</ele>
        <time>2017-03-11T09:49:07Z</time>
      </trkpt>
      <trkpt lat="48.6778" lon="1.96147">
        <ele>161.86584472656</ele>
        <time>2017-03-11T09:49:17Z</time>
      </trkpt>
      <trkpt lat="48.67784" lon="1.96167">
        <ele>160.86907958984</ele>
        <time>2017-03-11T09:49:25Z</time>
      </trkpt>
      <trkpt lat="48.67795" lon="1.96182">
        <ele>163.08654785156</ele>
        <time>2017-03-11T09:49:35Z</time>
      </trkpt>
      <trkpt lat="48.67798" lon="1.96202">
        <ele>161.28961181641</ele>
        <time>2017-03-11T09:49:40Z</time>
      </trkpt>
      <trkpt lat="48.67788" lon="1.96217">
        <ele>156.51147460938</ele>
        <time>2017-03-11T09:49:53Z</time>
      </trkpt>
      <trkpt lat="48.67774" lon="1.9622">
        <ele>156.65393066406</ele>
        <time>2017-03-11T09:50:02Z</time>
      </trkpt>
      <trkpt lat="48.67762" lon="1.96209">
        <ele>150.06103515625</ele>
        <time>2017-03-11T09:50:16Z</time>
      </trkpt>
      <trkpt lat="48.67751" lon="1.96197">
        <ele>146.74749755859</ele>
        <time>2017-03-11T09:50:26Z</time>
      </trkpt>
      <trkpt lat="48.67736" lon="1.96189">
        <ele>149.49401855469</ele>
        <time>2017-03-11T09:50:34Z</time>
      </trkpt>
      <trkpt lat="48.67725" lon="1.96203">
        <ele>142.29187011719</ele>
        <time>2017-03-11T09:50:50Z</time>
      </trkpt>
      <trkpt lat="48.67717" lon="1.96221">
        <ele>136.45275878906</ele>
        <time>2017-03-11T09:51:02Z</time>
      </trkpt>
      <trkpt lat="48.67707" lon="1.96234">
        <ele>132.46453857422</ele>
        <time>2017-03-11T09:51:10Z</time>
      </trkpt>
      <trkpt lat="48.67696" lon="1.96246">
        <ele>129.09942626953</ele>
        <time>2017-03-11T09:51:22Z</time>
      </trkpt>
      <trkpt lat="48.67685" lon="1.9626">
        <ele>124.47705078125</ele>
        <time>2017-03-11T09:51:33Z</time>
      </trkpt>
      <trkpt lat="48.67671" lon="1.96255">
        <ele>122.0234375</ele>
        <time>2017-03-11T09:54:50Z</time>
      </trkpt>
      <trkpt lat="48.67667" lon="1.96233">
        <ele>117.32165527344</ele>
        <time>2017-03-11T09:55:00Z</time>
      </trkpt>
      <trkpt lat="48.67665" lon="1.96212">
        <ele>109.41387939453</ele>
        <time>2017-03-11T09:55:12Z</time>
      </trkpt>
      <trkpt lat="48.67653" lon="1.96201">
        <ele>110.45056152344</ele>
        <time>2017-03-11T09:55:36Z</time>
      </trkpt>
      <trkpt lat="48.67638" lon="1.96197">
        <ele>105.41094970703</ele>
        <time>2017-03-11T09:55:50Z</time>
      </trkpt>
      <trkpt lat="48.67618" lon="1.96189">
        <ele>109.80419921875</ele>
        <time>2017-03-11T09:55:55Z</time>
      </trkpt>
      <trkpt lat="48.676" lon="1.96176">
        <ele>115.10388183594</ele>
        <time>2017-03-11T09:55:58Z</time>
      </trkpt>
      <trkpt lat="48.67594" lon="1.96157">
        <ele>116.40643310547</ele>
        <time>2017-03-11T09:56:06Z</time>
      </trkpt>
      <trkpt lat="48.67582" lon="1.96146">
        <ele>113.31390380859</ele>
        <time>2017-03-11T09:56:31Z</time>
      </trkpt>
      <trkpt lat="48.67574" lon="1.96129">
        <ele>120.75439453125</ele>
        <time>2017-03-11T09:56:40Z</time>
      </trkpt>
      <trkpt lat="48.67561" lon="1.96122">
        <ele>115.22369384766</ele>
        <time>2017-03-11T09:56:51Z</time>
      </trkpt>
      <trkpt lat="48.67546" lon="1.96117">
        <ele>118.67523193359</ele>
        <time>2017-03-11T09:57:01Z</time>
      </trkpt>
      <trkpt lat="48.67531" lon="1.96119">
        <ele>118.41943359375</ele>
        <time>2017-03-11T09:57:10Z</time>
      </trkpt>
      <trkpt lat="48.67516" lon="1.96117">
        <ele>117.90588378906</ele>
        <time>2017-03-11T09:57:18Z</time>
      </trkpt>
      <trkpt lat="48.67502" lon="1.96114">
        <ele>123.61315917969</ele>
        <time>2017-03-11T09:57:29Z</time>
      </trkpt>
      <trkpt lat="48.67488" lon="1.96104">
        <ele>122.18334960938</ele>
        <time>2017-03-11T09:57:46Z</time>
      </trkpt>
      <trkpt lat="48.67477" lon="1.96088">
        <ele>111.57110595703</ele>
        <time>2017-03-11T09:57:56Z</time>
      </trkpt>
      <trkpt lat="48.67468" lon="1.96072">
        <ele>107.36346435547</ele>
        <time>2017-03-11T09:58:03Z</time>
      </trkpt>
      <trkpt lat="48.67454" lon="1.96058">
        <ele>109.52075195312</ele>
        <time>2017-03-11T09:58:26Z</time>
      </trkpt>
      <trkpt lat="48.67443" lon="1.96042">
        <ele>109.87774658203</ele>
        <time>2017-03-11T09:58:34Z</time>
      </trkpt>
      <trkpt lat="48.67435" lon="1.96023">
        <ele>108.60546875</ele>
        <time>2017-03-11T09:58:38Z</time>
      </trkpt>
      <trkpt lat="48.67427" lon="1.96004">
        <ele>108.44793701172</ele>
        <time>2017-03-11T09:58:42Z</time>
      </trkpt>
      <trkpt lat="48.67426" lon="1.95981">
        <ele>108.31121826172</ele>
        <time>2017-03-11T09:58:49Z</time>
      </trkpt>
      <trkpt lat="48.67426" lon="1.9596">
        <ele>108.15991210938</ele>
        <time>2017-03-11T09:58:58Z</time>
      </trkpt>
      <trkpt lat="48.67423" lon="1.95939">
        <ele>104.29522705078</ele>
        <time>2017-03-11T09:59:07Z</time>
      </trkpt>
      <trkpt lat="48.67416" lon="1.95921">
        <ele>115.2568359375</ele>
        <time>2017-03-11T09:59:22Z</time>
      </trkpt>
      <trkpt lat="48.67406" lon="1.95905">
        <ele>113.98016357422</ele>
        <time>2017-03-11T09:59:34Z</time>
      </trkpt>
      <trkpt lat="48.67393" lon="1.95899">
        <ele>115.21801757812</ele>
        <time>2017-03-11T09:59:43Z</time>
      </trkpt>
      <trkpt lat="48.67387" lon="1.9588">
        <ele>113.41998291016</ele>
        <time>2017-03-11T09:59:52Z</time>
      </trkpt>
      <trkpt lat="48.67375" lon="1.95869">
        <ele>112.55114746094</ele>
        <time>2017-03-11T10:00:03Z</time>
      </trkpt>
      <trkpt lat="48.6736" lon="1.95857">
        <ele>116.58721923828</ele>
        <time>2017-03-11T10:00:22Z</time>
      </trkpt>
      <trkpt lat="48.67344" lon="1.9584">
        <ele>112.25122070312</ele>
        <time>2017-03-11T10:00:59Z</time>
      </trkpt>
      <trkpt lat="48.67328" lon="1.95824">
        <ele>111.51922607422</ele>
        <time>2017-03-11T10:01:06Z</time>
      </trkpt>
      <trkpt lat="48.67314" lon="1.95815">
        <ele>113.88427734375</ele>
        <time>2017-03-11T10:01:13Z</time>
      </trkpt>
      <trkpt lat="48.67303" lon="1.95799">
        <ele>115.21557617188</ele>
        <time>2017-03-11T10:01:20Z</time>
      </trkpt>
      <trkpt lat="48.6729" lon="1.95789">
        <ele>120.22796630859</ele>
        <time>2017-03-11T10:01:25Z</time>
      </trkpt>
      <trkpt lat="48.6728" lon="1.95774">
        <ele>125.45861816406</ele>
        <time>2017-03-11T10:01:32Z</time>
      </trkpt>
      <trkpt lat="48.67267" lon="1.95763">
        <ele>126.82214355469</ele>
        <time>2017-03-11T10:01:38Z</time>
      </trkpt>
      <trkpt lat="48.67258" lon="1.95746">
        <ele>125.11529541016</ele>
        <time>2017-03-11T10:01:46Z</time>
      </trkpt>
      <trkpt lat="48.67249" lon="1.95731">
        <ele>132.23645019531</ele>
        <time>2017-03-11T10:01:55Z</time>
      </trkpt>
      <trkpt lat="48.67235" lon="1.95721">
        <ele>137.45751953125</ele>
        <time>2017-03-11T10:02:03Z</time>
      </trkpt>
      <trkpt lat="48.67222" lon="1.95713">
        <ele>137.19268798828</ele>
        <time>2017-03-11T10:02:10Z</time>
      </trkpt>
      <trkpt lat="48.67212" lon="1.95698">
        <ele>137.54748535156</ele>
        <time>2017-03-11T10:02:21Z</time>
      </trkpt>
      <trkpt lat="48.67203" lon="1.95681">
        <ele>137.93054199219</ele>
        <time>2017-03-11T10:02:34Z</time>
      </trkpt>
      <trkpt lat="48.6719" lon="1.9567">
        <ele>138.68011474609</ele>
        <time>2017-03-11T10:02:40Z</time>
      </trkpt>
      <trkpt lat="48.67175" lon="1.95663">
        <ele>139.52703857422</ele>
        <time>2017-03-11T10:02:52Z</time>
      </trkpt>
      <trkpt lat="48.67161" lon="1.95658">
        <ele>146.04614257812</ele>
        <time>2017-03-11T10:03:01Z</time>
      </trkpt>
      <trkpt lat="48.6715" lon="1.95646">
        <ele>146.4580078125</ele>
        <time>2017-03-11T10:03:09Z</time>
      </trkpt>
      <trkpt lat="48.67134" lon="1.95631">
        <ele>149.36059570312</ele>
        <time>2017-03-11T10:03:28Z</time>
      </trkpt>
      <trkpt lat="48.67121" lon="1.95627">
        <ele>148.36340332031</ele>
        <time>2017-03-11T10:03:49Z</time>
      </trkpt>
      <trkpt lat="48.67106" lon="1.95626">
        <ele>146.21722412109</ele>
        <time>2017-03-11T10:03:58Z</time>
      </trkpt>
      <trkpt lat="48.67091" lon="1.95622">
        <ele>145.87432861328</ele>
        <time>2017-03-11T10:04:03Z</time>
      </trkpt>
      <trkpt lat="48.67074" lon="1.95625">
        <ele>148.45471191406</ele>
        <time>2017-03-11T10:04:10Z</time>
      </trkpt>
      <trkpt lat="48.67059" lon="1.95627">
        <ele>142.71899414062</ele>
        <time>2017-03-11T10:04:18Z</time>
      </trkpt>
      <trkpt lat="48.67046" lon="1.9563">
        <ele>144.84326171875</ele>
        <time>2017-03-11T10:04:24Z</time>
      </trkpt>
      <trkpt lat="48.67032" lon="1.9563">
        <ele>147.67114257812</ele>
        <time>2017-03-11T10:04:30Z</time>
      </trkpt>
      <trkpt lat="48.67034" lon="1.95609">
        <ele>152.42962646484</ele>
        <time>2017-03-11T10:04:41Z</time>
      </trkpt>
      <trkpt lat="48.67028" lon="1.9559">
        <ele>145.52551269531</ele>
        <time>2017-03-11T10:04:51Z</time>
      </trkpt>
      <trkpt lat="48.67016" lon="1.95581">
        <ele>146.34674072266</ele>
        <time>2017-03-11T10:05:03Z</time>
      </trkpt>
      <trkpt lat="48.67024" lon="1.95561">
        <ele>157.02667236328</ele>
        <time>2017-03-11T10:07:03Z</time>
      </trkpt>
      <trkpt lat="48.67034" lon="1.95546">
        <ele>153.18701171875</ele>
        <time>2017-03-11T10:07:07Z</time>
      </trkpt>
      <trkpt lat="48.67043" lon="1.95527">
        <ele>150.162109375</ele>
        <time>2017-03-11T10:07:14Z</time>
      </trkpt>
      <trkpt lat="48.67053" lon="1.95508">
        <ele>152.78546142578</ele>
        <time>2017-03-11T10:07:21Z</time>
      </trkpt>
      <trkpt lat="48.67062" lon="1.95492">
        <ele>155.31585693359</ele>
        <time>2017-03-11T10:07:30Z</time>
      </trkpt>
      <trkpt lat="48.67069" lon="1.95473">
        <ele>158.53686523438</ele>
        <time>2017-03-11T10:07:40Z</time>
      </trkpt>
      <trkpt lat="48.67074" lon="1.95454">
        <ele>154.42413330078</ele>
        <time>2017-03-11T10:07:50Z</time>
      </trkpt>
      <trkpt lat="48.67083" lon="1.95437">
        <ele>156.71514892578</ele>
        <time>2017-03-11T10:07:57Z</time>
      </trkpt>
      <trkpt lat="48.67097" lon="1.95429">
        <ele>161.02307128906</ele>
        <time>2017-03-11T10:08:07Z</time>
      </trkpt>
      <trkpt lat="48.67109" lon="1.95418">
        <ele>164.62133789062</ele>
        <time>2017-03-11T10:08:16Z</time>
      </trkpt>
      <trkpt lat="48.6712" lon="1.95405">
        <ele>165.41369628906</ele>
        <time>2017-03-11T10:08:25Z</time>
      </trkpt>
      <trkpt lat="48.67131" lon="1.95393">
        <ele>167.9111328125</ele>
        <time>2017-03-11T10:08:33Z</time>
      </trkpt>
      <trkpt lat="48.67144" lon="1.95388">
        <ele>168.64245605469</ele>
        <time>2017-03-11T10:08:39Z</time>
      </trkpt>
      <trkpt lat="48.67156" lon="1.95375">
        <ele>169.3515625</ele>
        <time>2017-03-11T10:08:45Z</time>
      </trkpt>
      <trkpt lat="48.67169" lon="1.95363">
        <ele>172.28845214844</ele>
        <time>2017-03-11T10:08:52Z</time>
      </trkpt>
      <trkpt lat="48.67181" lon="1.95352">
        <ele>171.53314208984</ele>
        <time>2017-03-11T10:09:04Z</time>
      </trkpt>
      <trkpt lat="48.67191" lon="1.9534">
        <ele>170.15112304688</ele>
        <time>2017-03-11T10:09:13Z</time>
      </trkpt>
      <trkpt lat="48.67202" lon="1.95319">
        <ele>164.21087646484</ele>
        <time>2017-03-11T10:09:26Z</time>
      </trkpt>
      <trkpt lat="48.67212" lon="1.95304">
        <ele>166.97576904297</ele>
        <time>2017-03-11T10:09:34Z</time>
      </trkpt>
      <trkpt lat="48.67222" lon="1.95289">
        <ele>168.388671875</ele>
        <time>2017-03-11T10:09:43Z</time>
      </trkpt>
      <trkpt lat="48.67232" lon="1.95275">
        <ele>162.76373291016</ele>
        <time>2017-03-11T10:11:28Z</time>
      </trkpt>
      <trkpt lat="48.67246" lon="1.95281">
        <ele>160.01538085938</ele>
        <time>2017-03-11T10:11:37Z</time>
      </trkpt>
      <trkpt lat="48.67259" lon="1.9529">
        <ele>159.33935546875</ele>
        <time>2017-03-11T10:11:44Z</time>
      </trkpt>
      <trkpt lat="48.67274" lon="1.95292">
        <ele>158.43658447266</ele>
        <time>2017-03-11T10:11:49Z</time>
      </trkpt>
      <trkpt lat="48.67289" lon="1.95293">
        <ele>157.42974853516</ele>
        <time>2017-03-11T10:11:55Z</time>
      </trkpt>
      <trkpt lat="48.67303" lon="1.95297">
        <ele>151.86047363281</ele>
        <time>2017-03-11T10:12:01Z</time>
      </trkpt>
      <trkpt lat="48.6732" lon="1.95312">
        <ele>149.41259765625</ele>
        <time>2017-03-11T10:12:13Z</time>
      </trkpt>
      <trkpt lat="48.67332" lon="1.95323">
        <ele>151.61248779297</ele>
        <time>2017-03-11T10:12:16Z</time>
      </trkpt>
      <trkpt lat="48.67347" lon="1.95332">
        <ele>152.67077636719</ele>
        <time>2017-03-11T10:12:23Z</time>
      </trkpt>
      <trkpt lat="48.67357" lon="1.95347">
        <ele>151.67175292969</ele>
        <time>2017-03-11T10:12:40Z</time>
      </trkpt>
      <trkpt lat="48.67372" lon="1.95349">
        <ele>150.36578369141</ele>
        <time>2017-03-11T10:12:49Z</time>
      </trkpt>
      <trkpt lat="48.67385" lon="1.9536">
        <ele>150.33160400391</ele>
        <time>2017-03-11T10:12:59Z</time>
      </trkpt>
      <trkpt lat="48.67398" lon="1.95368">
        <ele>150.32141113281</ele>
        <time>2017-03-11T10:13:11Z</time>
      </trkpt>
      <trkpt lat="48.67411" lon="1.95377">
        <ele>148.62707519531</ele>
        <time>2017-03-11T10:13:21Z</time>
      </trkpt>
      <trkpt lat="48.67424" lon="1.95383">
        <ele>146.46600341797</ele>
        <time>2017-03-11T10:13:30Z</time>
      </trkpt>
      <trkpt lat="48.67438" lon="1.9539">
        <ele>136.62707519531</ele>
        <time>2017-03-11T10:13:41Z</time>
      </trkpt>
      <trkpt lat="48.67452" lon="1.95398">
        <ele>131.75231933594</ele>
        <time>2017-03-11T10:13:49Z</time>
      </trkpt>
      <trkpt lat="48.67466" lon="1.95406">
        <ele>133.01324462891</ele>
        <time>2017-03-11T10:13:59Z</time>
      </trkpt>
      <trkpt lat="48.6748" lon="1.95412">
        <ele>131.5673828125</ele>
        <time>2017-03-11T10:14:12Z</time>
      </trkpt>
      <trkpt lat="48.67494" lon="1.95421">
        <ele>133.8388671875</ele>
        <time>2017-03-11T10:14:17Z</time>
      </trkpt>
      <trkpt lat="48.67507" lon="1.95421">
        <ele>136.04132080078</ele>
        <time>2017-03-11T10:15:18Z</time>
      </trkpt>
      <trkpt lat="48.67516" lon="1.95403">
        <ele>140.76000976562</ele>
        <time>2017-03-11T10:15:26Z</time>
      </trkpt>
      <trkpt lat="48.67521" lon="1.95382">
        <ele>144.28283691406</ele>
        <time>2017-03-11T10:15:34Z</time>
      </trkpt>
      <trkpt lat="48.67528" lon="1.95361">
        <ele>142.11968994141</ele>
        <time>2017-03-11T10:15:41Z</time>
      </trkpt>
      <trkpt lat="48.67534" lon="1.95342">
        <ele>145.59075927734</ele>
        <time>2017-03-11T10:15:50Z</time>
      </trkpt>
      <trkpt lat="48.67536" lon="1.95319">
        <ele>149.82397460938</ele>
        <time>2017-03-11T10:15:58Z</time>
      </trkpt>
      <trkpt lat="48.67529" lon="1.95299">
        <ele>150.05554199219</ele>
        <time>2017-03-11T10:16:08Z</time>
      </trkpt>
      <trkpt lat="48.67532" lon="1.95279">
        <ele>146.48376464844</ele>
        <time>2017-03-11T10:16:18Z</time>
      </trkpt>
      <trkpt lat="48.67543" lon="1.95259">
        <ele>144.37951660156</ele>
        <time>2017-03-11T10:16:41Z</time>
      </trkpt>
      <trkpt lat="48.67552" lon="1.95243">
        <ele>144.50524902344</ele>
        <time>2017-03-11T10:16:51Z</time>
      </trkpt>
      <trkpt lat="48.67562" lon="1.95225">
        <ele>146.42797851562</ele>
        <time>2017-03-11T10:16:58Z</time>
      </trkpt>
      <trkpt lat="48.67569" lon="1.95208">
        <ele>145.35546875</ele>
        <time>2017-03-11T10:17:04Z</time>
      </trkpt>
      <trkpt lat="48.67575" lon="1.95187">
        <ele>144.16363525391</ele>
        <time>2017-03-11T10:17:12Z</time>
      </trkpt>
      <trkpt lat="48.67587" lon="1.95178">
        <ele>147.72113037109</ele>
        <time>2017-03-11T10:17:17Z</time>
      </trkpt>
      <trkpt lat="48.67598" lon="1.95164">
        <ele>148.97595214844</ele>
        <time>2017-03-11T10:17:25Z</time>
      </trkpt>
      <trkpt lat="48.67607" lon="1.95147">
        <ele>149.66589355469</ele>
        <time>2017-03-11T10:17:40Z</time>
      </trkpt>
      <trkpt lat="48.67619" lon="1.95134">
        <ele>150.76885986328</ele>
        <time>2017-03-11T10:17:46Z</time>
      </trkpt>
      <trkpt lat="48.67631" lon="1.9512">
        <ele>148.14337158203</ele>
        <time>2017-03-11T10:17:57Z</time>
      </trkpt>
      <trkpt lat="48.67638" lon="1.95099">
        <ele>146.44189453125</ele>
        <time>2017-03-11T10:18:07Z</time>
      </trkpt>
      <trkpt lat="48.67644" lon="1.9508">
        <ele>145.64166259766</ele>
        <time>2017-03-11T10:18:16Z</time>
      </trkpt>
      <trkpt lat="48.67647" lon="1.95059">
        <ele>143.55346679688</ele>
        <time>2017-03-11T10:18:29Z</time>
      </trkpt>
      <trkpt lat="48.67649" lon="1.95038">
        <ele>143.791015625</ele>
        <time>2017-03-11T10:18:38Z</time>
      </trkpt>
      <trkpt lat="48.67649" lon="1.95015">
        <ele>144.73571777344</ele>
        <time>2017-03-11T10:18:46Z</time>
      </trkpt>
      <trkpt lat="48.67651" lon="1.94995">
        <ele>145.58270263672</ele>
        <time>2017-03-11T10:18:55Z</time>
      </trkpt>
      <trkpt lat="48.67658" lon="1.94977">
        <ele>148.17785644531</ele>
        <time>2017-03-11T10:19:02Z</time>
      </trkpt>
      <trkpt lat="48.67651" lon="1.94957">
        <ele>143.19848632812</ele>
        <time>2017-03-11T10:19:10Z</time>
      </trkpt>
      <trkpt lat="48.67637" lon="1.94951">
        <ele>138.279296875</ele>
        <time>2017-03-11T10:19:17Z</time>
      </trkpt>
      <trkpt lat="48.67634" lon="1.9493">
        <ele>134.5302734375</ele>
        <time>2017-03-11T10:19:28Z</time>
      </trkpt>
      <trkpt lat="48.67641" lon="1.94913">
        <ele>135.21929931641</ele>
        <time>2017-03-11T10:19:36Z</time>
      </trkpt>
      <trkpt lat="48.67651" lon="1.94898">
        <ele>139.23034667969</ele>
        <time>2017-03-11T10:19:44Z</time>
      </trkpt>
      <trkpt lat="48.67655" lon="1.94878">
        <ele>140.322265625</ele>
        <time>2017-03-11T10:19:55Z</time>
      </trkpt>
      <trkpt lat="48.67657" lon="1.94858">
        <ele>135.68188476562</ele>
        <time>2017-03-11T10:20:07Z</time>
      </trkpt>
      <trkpt lat="48.67657" lon="1.94836">
        <ele>131.25061035156</ele>
        <time>2017-03-11T10:20:15Z</time>
      </trkpt>
      <trkpt lat="48.67659" lon="1.94815">
        <ele>129.828125</ele>
        <time>2017-03-11T10:20:24Z</time>
      </trkpt>
      <trkpt lat="48.67658" lon="1.94794">
        <ele>129.4873046875</ele>
        <time>2017-03-11T10:20:32Z</time>
      </trkpt>
      <trkpt lat="48.6766" lon="1.94773">
        <ele>129.74993896484</ele>
        <time>2017-03-11T10:20:40Z</time>
      </trkpt>
      <trkpt lat="48.67665" lon="1.94754">
        <ele>128.40679931641</ele>
        <time>2017-03-11T10:20:48Z</time>
      </trkpt>
      <trkpt lat="48.67671" lon="1.94733">
        <ele>131.33831787109</ele>
        <time>2017-03-11T10:20:59Z</time>
      </trkpt>
      <trkpt lat="48.67678" lon="1.94716">
        <ele>135.05120849609</ele>
        <time>2017-03-11T10:21:11Z</time>
      </trkpt>
      <trkpt lat="48.67673" lon="1.94694">
        <ele>132.67431640625</ele>
        <time>2017-03-11T10:21:22Z</time>
      </trkpt>
      <trkpt lat="48.67665" lon="1.94678">
        <ele>138.73474121094</ele>
        <time>2017-03-11T10:21:49Z</time>
      </trkpt>
      <trkpt lat="48.67678" lon="1.94683">
        <ele>145.06164550781</ele>
        <time>2017-03-11T10:24:15Z</time>
      </trkpt>
      <trkpt lat="48.67664" lon="1.94691">
        <ele>144.71484375</ele>
        <time>2017-03-11T10:25:17Z</time>
      </trkpt>
      <trkpt lat="48.67651" lon="1.94684">
        <ele>148.18548583984</ele>
        <time>2017-03-11T10:25:31Z</time>
      </trkpt>
      <trkpt lat="48.67637" lon="1.94679">
        <ele>147.89379882812</ele>
        <time>2017-03-11T10:25:42Z</time>
      </trkpt>
      <trkpt lat="48.67623" lon="1.94674">
        <ele>149.50280761719</ele>
        <time>2017-03-11T10:25:53Z</time>
      </trkpt>
      <trkpt lat="48.67609" lon="1.94673">
        <ele>143.99243164062</ele>
        <time>2017-03-11T10:26:03Z</time>
      </trkpt>
      <trkpt lat="48.67595" lon="1.94672">
        <ele>146.86669921875</ele>
        <time>2017-03-11T10:26:12Z</time>
      </trkpt>
      <trkpt lat="48.67582" lon="1.94673">
        <ele>150.10943603516</ele>
        <time>2017-03-11T10:26:20Z</time>
      </trkpt>
      <trkpt lat="48.67568" lon="1.9467">
        <ele>150.1943359375</ele>
        <time>2017-03-11T10:26:31Z</time>
      </trkpt>
      <trkpt lat="48.67553" lon="1.94671">
        <ele>150.38433837891</ele>
        <time>2017-03-11T10:26:42Z</time>
      </trkpt>
      <trkpt lat="48.6754" lon="1.94669">
        <ele>149.2939453125</ele>
        <time>2017-03-11T10:26:50Z</time>
      </trkpt>
      <trkpt lat="48.67525" lon="1.94664">
        <ele>149.07525634766</ele>
        <time>2017-03-11T10:26:57Z</time>
      </trkpt>
      <trkpt lat="48.67513" lon="1.94656">
        <ele>149.69445800781</ele>
        <time>2017-03-11T10:27:04Z</time>
      </trkpt>
      <trkpt lat="48.67511" lon="1.94635">
        <ele>151.36535644531</ele>
        <time>2017-03-11T10:27:11Z</time>
      </trkpt>
      <trkpt lat="48.67524" lon="1.94623">
        <ele>154.55749511719</ele>
        <time>2017-03-11T10:27:17Z</time>
      </trkpt>
      <trkpt lat="48.67525" lon="1.94601">
        <ele>159.57141113281</ele>
        <time>2017-03-11T10:27:25Z</time>
      </trkpt>
      <trkpt lat="48.67531" lon="1.9458">
        <ele>159.70666503906</ele>
        <time>2017-03-11T10:27:33Z</time>
      </trkpt>
      <trkpt lat="48.67539" lon="1.94562">
        <ele>156.95849609375</ele>
        <time>2017-03-11T10:27:41Z</time>
      </trkpt>
      <trkpt lat="48.67544" lon="1.94541">
        <ele>157.34680175781</ele>
        <time>2017-03-11T10:27:48Z</time>
      </trkpt>
      <trkpt lat="48.67551" lon="1.94524">
        <ele>160.82641601562</ele>
        <time>2017-03-11T10:27:56Z</time>
      </trkpt>
      <trkpt lat="48.67554" lon="1.94503">
        <ele>162.36206054688</ele>
        <time>2017-03-11T10:28:07Z</time>
      </trkpt>
      <trkpt lat="48.67559" lon="1.94482">
        <ele>164.18572998047</ele>
        <time>2017-03-11T10:28:15Z</time>
      </trkpt>
      <trkpt lat="48.67558" lon="1.94461">
        <ele>162.91711425781</ele>
        <time>2017-03-11T10:28:22Z</time>
      </trkpt>
      <trkpt lat="48.67568" lon="1.94442">
        <ele>162.15270996094</ele>
        <time>2017-03-11T10:28:28Z</time>
      </trkpt>
      <trkpt lat="48.67575" lon="1.94423">
        <ele>166.08001708984</ele>
        <time>2017-03-11T10:28:35Z</time>
      </trkpt>
      <trkpt lat="48.6758" lon="1.94404">
        <ele>161.64440917969</ele>
        <time>2017-03-11T10:28:46Z</time>
      </trkpt>
      <trkpt lat="48.67583" lon="1.94382">
        <ele>160.58905029297</ele>
        <time>2017-03-11T10:28:57Z</time>
      </trkpt>
      <trkpt lat="48.67584" lon="1.94359">
        <ele>158.11389160156</ele>
        <time>2017-03-11T10:29:04Z</time>
      </trkpt>
      <trkpt lat="48.67588" lon="1.94338">
        <ele>160.14727783203</ele>
        <time>2017-03-11T10:29:12Z</time>
      </trkpt>
      <trkpt lat="48.67593" lon="1.94319">
        <ele>160.61999511719</ele>
        <time>2017-03-11T10:29:18Z</time>
      </trkpt>
      <trkpt lat="48.67592" lon="1.94297">
        <ele>157.78521728516</ele>
        <time>2017-03-11T10:29:28Z</time>
      </trkpt>
      <trkpt lat="48.67602" lon="1.94278">
        <ele>156.34588623047</ele>
        <time>2017-03-11T10:29:36Z</time>
      </trkpt>
      <trkpt lat="48.67613" lon="1.94266">
        <ele>159.85241699219</ele>
        <time>2017-03-11T10:29:42Z</time>
      </trkpt>
      <trkpt lat="48.6762" lon="1.94249">
        <ele>162.08831787109</ele>
        <time>2017-03-11T10:29:50Z</time>
      </trkpt>
      <trkpt lat="48.67628" lon="1.94229">
        <ele>157.49328613281</ele>
        <time>2017-03-11T10:30:02Z</time>
      </trkpt>
      <trkpt lat="48.6763" lon="1.94204">
        <ele>159.12841796875</ele>
        <time>2017-03-11T10:30:09Z</time>
      </trkpt>
      <trkpt lat="48.67635" lon="1.94184">
        <ele>159.83331298828</ele>
        <time>2017-03-11T10:30:18Z</time>
      </trkpt>
      <trkpt lat="48.67639" lon="1.94164">
        <ele>157.39880371094</ele>
        <time>2017-03-11T10:30:27Z</time>
      </trkpt>
      <trkpt lat="48.67637" lon="1.94143">
        <ele>158.48858642578</ele>
        <time>2017-03-11T10:30:34Z</time>
      </trkpt>
      <trkpt lat="48.6764" lon="1.94121">
        <ele>161.83026123047</ele>
        <time>2017-03-11T10:30:42Z</time>
      </trkpt>
      <trkpt lat="48.67644" lon="1.94101">
        <ele>157.05261230469</ele>
        <time>2017-03-11T10:30:49Z</time>
      </trkpt>
      <trkpt lat="48.67646" lon="1.94078">
        <ele>159.78857421875</ele>
        <time>2017-03-11T10:30:56Z</time>
      </trkpt>
      <trkpt lat="48.67651" lon="1.94059">
        <ele>161.24908447266</ele>
        <time>2017-03-11T10:31:04Z</time>
      </trkpt>
      <trkpt lat="48.6766" lon="1.94041">
        <ele>165.29089355469</ele>
        <time>2017-03-11T10:31:11Z</time>
      </trkpt>
      <trkpt lat="48.6767" lon="1.94025">
        <ele>167.38256835938</ele>
        <time>2017-03-11T10:31:17Z</time>
      </trkpt>
      <trkpt lat="48.6768" lon="1.94008">
        <ele>165.48883056641</ele>
        <time>2017-03-11T10:31:26Z</time>
      </trkpt>
      <trkpt lat="48.67684" lon="1.93988">
        <ele>164.21069335938</ele>
        <time>2017-03-11T10:31:36Z</time>
      </trkpt>
      <trkpt lat="48.6769" lon="1.93969">
        <ele>165.89459228516</ele>
        <time>2017-03-11T10:31:46Z</time>
      </trkpt>
      <trkpt lat="48.67702" lon="1.93957">
        <ele>167.73876953125</ele>
        <time>2017-03-11T10:31:52Z</time>
      </trkpt>
      <trkpt lat="48.67713" lon="1.93944">
        <ele>171.20751953125</ele>
        <time>2017-03-11T10:32:00Z</time>
      </trkpt>
      <trkpt lat="48.6772" lon="1.93926">
        <ele>169.63903808594</ele>
        <time>2017-03-11T10:32:09Z</time>
      </trkpt>
      <trkpt lat="48.6773" lon="1.93908">
        <ele>166.69525146484</ele>
        <time>2017-03-11T10:32:18Z</time>
      </trkpt>
      <trkpt lat="48.6774" lon="1.93893">
        <ele>168.61773681641</ele>
        <time>2017-03-11T10:32:29Z</time>
      </trkpt>
      <trkpt lat="48.67751" lon="1.93878">
        <ele>170.72338867188</ele>
        <time>2017-03-11T10:32:37Z</time>
      </trkpt>
      <trkpt lat="48.67761" lon="1.93863">
        <ele>167.83514404297</ele>
        <time>2017-03-11T10:32:45Z</time>
      </trkpt>
      <trkpt lat="48.6777" lon="1.93847">
        <ele>168.04339599609</ele>
        <time>2017-03-11T10:32:55Z</time>
      </trkpt>
      <trkpt lat="48.6778" lon="1.93833">
        <ele>168.63781738281</ele>
        <time>2017-03-11T10:33:03Z</time>
      </trkpt>
      <trkpt lat="48.67788" lon="1.93813">
        <ele>167.23901367188</ele>
        <time>2017-03-11T10:33:13Z</time>
      </trkpt>
      <trkpt lat="48.67797" lon="1.93797">
        <ele>168.34057617188</ele>
        <time>2017-03-11T10:33:21Z</time>
      </trkpt>
      <trkpt lat="48.67806" lon="1.93781">
        <ele>162.51159667969</ele>
        <time>2017-03-11T10:33:30Z</time>
      </trkpt>
      <trkpt lat="48.6781" lon="1.93761">
        <ele>158.94580078125</ele>
        <time>2017-03-11T10:33:40Z</time>
      </trkpt>
      <trkpt lat="48.67819" lon="1.93745">
        <ele>157.98529052734</ele>
        <time>2017-03-11T10:33:48Z</time>
      </trkpt>
      <trkpt lat="48.67827" lon="1.93726">
        <ele>163.94470214844</ele>
        <time>2017-03-11T10:33:59Z</time>
      </trkpt>
      <trkpt lat="48.67838" lon="1.93713">
        <ele>170.90753173828</ele>
        <time>2017-03-11T10:34:06Z</time>
      </trkpt>
      <trkpt lat="48.67839" lon="1.93691">
        <ele>169.34783935547</ele>
        <time>2017-03-11T10:34:21Z</time>
      </trkpt>
      <trkpt lat="48.67849" lon="1.93677">
        <ele>170.57763671875</ele>
        <time>2017-03-11T10:34:30Z</time>
      </trkpt>
      <trkpt lat="48.67856" lon="1.93659">
        <ele>170.09594726562</ele>
        <time>2017-03-11T10:34:40Z</time>
      </trkpt>
      <trkpt lat="48.67862" lon="1.93637">
        <ele>167.953125</ele>
        <time>2017-03-11T10:34:58Z</time>
      </trkpt>
      <trkpt lat="48.67868" lon="1.93619">
        <ele>167.29650878906</ele>
        <time>2017-03-11T10:35:08Z</time>
      </trkpt>
      <trkpt lat="48.6787" lon="1.93598">
        <ele>161.96435546875</ele>
        <time>2017-03-11T10:35:18Z</time>
      </trkpt>
      <trkpt lat="48.6787" lon="1.93575">
        <ele>158.31555175781</ele>
        <time>2017-03-11T10:35:25Z</time>
      </trkpt>
      <trkpt lat="48.67876" lon="1.93554">
        <ele>161.47790527344</ele>
        <time>2017-03-11T10:35:32Z</time>
      </trkpt>
      <trkpt lat="48.67874" lon="1.93533">
        <ele>161.41937255859</ele>
        <time>2017-03-11T10:35:38Z</time>
      </trkpt>
      <trkpt lat="48.67878" lon="1.93511">
        <ele>163.21594238281</ele>
        <time>2017-03-11T10:35:45Z</time>
      </trkpt>
      <trkpt lat="48.67876" lon="1.93485">
        <ele>172.49151611328</ele>
        <time>2017-03-11T10:35:56Z</time>
      </trkpt>
      <trkpt lat="48.67885" lon="1.93467">
        <ele>173.24871826172</ele>
        <time>2017-03-11T10:36:02Z</time>
      </trkpt>
      <trkpt lat="48.67883" lon="1.93447">
        <ele>170.48516845703</ele>
        <time>2017-03-11T10:36:11Z</time>
      </trkpt>
      <trkpt lat="48.67884" lon="1.93425">
        <ele>169.59802246094</ele>
        <time>2017-03-11T10:36:20Z</time>
      </trkpt>
      <trkpt lat="48.67889" lon="1.93404">
        <ele>173.83776855469</ele>
        <time>2017-03-11T10:36:28Z</time>
      </trkpt>
      <trkpt lat="48.67899" lon="1.93388">
        <ele>174.85168457031</ele>
        <time>2017-03-11T10:36:34Z</time>
      </trkpt>
      <trkpt lat="48.67906" lon="1.93369">
        <ele>170.00927734375</ele>
        <time>2017-03-11T10:36:44Z</time>
      </trkpt>
      <trkpt lat="48.67905" lon="1.93348">
        <ele>171.40002441406</ele>
        <time>2017-03-11T10:36:52Z</time>
      </trkpt>
      <trkpt lat="48.67904" lon="1.93326">
        <ele>172.04144287109</ele>
        <time>2017-03-11T10:37:03Z</time>
      </trkpt>
      <trkpt lat="48.67895" lon="1.93308">
        <ele>167.26666259766</ele>
        <time>2017-03-11T10:37:14Z</time>
      </trkpt>
      <trkpt lat="48.67898" lon="1.93285">
        <ele>164.26959228516</ele>
        <time>2017-03-11T10:37:23Z</time>
      </trkpt>
      <trkpt lat="48.67906" lon="1.93267">
        <ele>168.23504638672</ele>
        <time>2017-03-11T10:37:29Z</time>
      </trkpt>
      <trkpt lat="48.67916" lon="1.93253">
        <ele>169.34887695312</ele>
        <time>2017-03-11T10:37:33Z</time>
      </trkpt>
      <trkpt lat="48.67918" lon="1.93231">
        <ele>162.44952392578</ele>
        <time>2017-03-11T10:37:44Z</time>
      </trkpt>
      <trkpt lat="48.67921" lon="1.93211">
        <ele>163.4033203125</ele>
        <time>2017-03-11T10:37:53Z</time>
      </trkpt>
      <trkpt lat="48.67925" lon="1.93191">
        <ele>163.90270996094</ele>
        <time>2017-03-11T10:38:02Z</time>
      </trkpt>
      <trkpt lat="48.67924" lon="1.9317">
        <ele>163.82836914062</ele>
        <time>2017-03-11T10:38:10Z</time>
      </trkpt>
      <trkpt lat="48.67934" lon="1.93154">
        <ele>164.51599121094</ele>
        <time>2017-03-11T10:38:19Z</time>
      </trkpt>
      <trkpt lat="48.6794" lon="1.93133">
        <ele>163.02380371094</ele>
        <time>2017-03-11T10:38:30Z</time>
      </trkpt>
      <trkpt lat="48.67946" lon="1.93114">
        <ele>160.46643066406</ele>
        <time>2017-03-11T10:38:40Z</time>
      </trkpt>
      <trkpt lat="48.6796" lon="1.93112">
        <ele>162.16943359375</ele>
        <time>2017-03-11T10:38:53Z</time>
      </trkpt>
      <trkpt lat="48.6797" lon="1.93098">
        <ele>169.68188476562</ele>
        <time>2017-03-11T10:39:02Z</time>
      </trkpt>
      <trkpt lat="48.67983" lon="1.93089">
        <ele>169.08953857422</ele>
        <time>2017-03-11T10:39:08Z</time>
      </trkpt>
      <trkpt lat="48.67996" lon="1.93079">
        <ele>168.63482666016</ele>
        <time>2017-03-11T10:39:15Z</time>
      </trkpt>
      <trkpt lat="48.68007" lon="1.93067">
        <ele>169.48272705078</ele>
        <time>2017-03-11T10:39:24Z</time>
      </trkpt>
      <trkpt lat="48.68009" lon="1.93049">
        <ele>164.81085205078</ele>
        <time>2017-03-11T10:39:52Z</time>
      </trkpt>
    </trkseg>
  </trk>
</gpx>